Aqualoyalty — A8ZC6 — position and weather

sailwx.info

Track history (hours):
 
Tides and Currents Weather Stations Pressure Air Temp Water Temp Dewpoint Dewpoint Depression Visibility Wind Speed Wind Dir Waves Ship Positions

Aqualoyalty

Last reported at 2015-Apr-01 21:05 UTC. Time now 2015-Apr-25 21:51 UTC.
Position N 31°33' W 117°26'.
Warning: this ship's position is 24 days out of date.

Length 249 m; draft 8.4 m.

Type: Ship. MMSI: 636015177.

Date/timePositionNaut miles runAvg speedWind from/ knotsBaromVisibWave heightAir tempDewpointWater temp
2015-Apr-01 21:05N 31°33' W 117°26'711.0
2015-Apr-01 20:25N 31°40' W 117°29'3010.5
2015-Apr-01 17:33N 32°09' W 117°39'1010.2
2015-Apr-01 16:33N 32°19' W 117°43'1010.0
2015-Apr-01 15:33N 32°28' W 117°46'8 8.4
2015-Apr-01 14:33N 32°37' W 117°49'1010.1
2015-Apr-01 13:33N 32°46' W 117°53'1010.4
2015-Apr-01 12:33N 32°56' W 117°57'1110.6
2015-Apr-01 11:33N 33°06' W 118°01'1110.9
2015-Apr-01 10:33N 33°16' W 118°05'1110.7
2015-Apr-01 09:33N 33°27' W 118°09'1110.4
2015-Apr-01 08:32N 33°37' W 118°13'7 7.2
2015-Apr-01 07:33N 33°44' W 118°12'1 0.8
2015-Apr-01 06:31N 33°44' W 118°13'0 0.0
2015-Apr-01 05:31N 33°44' W 118°13'0 0.1
2015-Apr-01 04:31N 33°44' W 118°13'0 0.1
2015-Apr-01 03:31N 33°44' W 118°13'0 0.0
2015-Apr-01 02:31N 33°44' W 118°13'0 0.1
2015-Apr-01 01:31N 33°44' W 118°13'0 0.1
2015-Apr-01 00:31N 33°44' W 118°13'3 2.7
2015-Mar-31 23:34N 33°46' W 118°13'0 0.1
2015-Mar-31 22:31N 33°46' W 118°13'0 0.0
2015-Mar-31 21:31N 33°46' W 118°13'0 0.0
2015-Mar-31 20:31N 33°46' W 118°13'0 0.0
2015-Mar-31 19:31N 33°46' W 118°13'0 0.0
2015-Mar-31 18:31N 33°46' W 118°13'0 0.0
2015-Mar-31 17:31N 33°46' W 118°13'0 0.0
2015-Mar-31 16:31N 33°46' W 118°13'0 0.0
2015-Mar-31 15:31N 33°46' W 118°13'0 0.0
2015-Mar-31 14:31N 33°46' W 118°13'0 0.0
2015-Mar-31 13:31N 33°46' W 118°13'0 0.0
2015-Mar-31 12:31N 33°46' W 118°13'0 0.0
2015-Mar-31 11:31N 33°46' W 118°13'0 0.0
2015-Mar-31 10:31N 33°46' W 118°13'0 0.0
2015-Mar-31 09:31N 33°46' W 118°13'0 0.0
2015-Mar-31 08:31N 33°46' W 118°13'0 0.0
2015-Mar-31 07:31N 33°46' W 118°13'0 0.0
2015-Mar-31 06:31N 33°46' W 118°13'0 0.0
2015-Mar-31 05:31N 33°46' W 118°13'0 0.0
2015-Mar-31 04:31N 33°46' W 118°13'0 0.0
2015-Mar-31 03:31N 33°46' W 118°13'0 0.0
2015-Mar-31 02:31N 33°46' W 118°13'0 0.0
2015-Mar-31 01:31N 33°46' W 118°13'0 0.0
2015-Mar-31 00:31N 33°46' W 118°13'0 0.0
2015-Mar-30 23:31N 33°46' W 118°13'0 0.0
2015-Mar-30 22:31N 33°46' W 118°13'0 0.0
2015-Mar-30 21:31N 33°46' W 118°13'0 0.0
2015-Mar-30 20:31N 33°46' W 118°13'0 0.0
2015-Mar-30 19:31N 33°46' W 118°13'0 0.0
2015-Mar-30 18:31N 33°46' W 118°13'0 0.0
2015-Mar-30 17:31N 33°46' W 118°13'0 0.0
2015-Mar-30 16:31N 33°46' W 118°13'0 0.0
2015-Mar-30 15:31N 33°46' W 118°13'0 0.0
2015-Mar-30 14:31N 33°46' W 118°13'0 0.0
2015-Mar-30 13:34N 33°46' W 118°13'2 2.4
2015-Mar-30 12:34N 33°44' W 118°12'6 6.3
2015-Mar-30 11:33N 33°38' W 118°10'8 8.2
2015-Mar-30 10:33N 33°30' W 118°07'1111.1
2015-Mar-30 09:34N 33°20' W 118°03'1111.3
2015-Mar-30 08:33N 33°09' W 117°58'1111.3
2015-Mar-30 07:34N 32°59' W 117°53'1111.2
2015-Mar-30 06:33N 32°48' W 117°49'1111.0
2015-Mar-30 05:33N 32°38' W 117°45'8 8.5
2015-Mar-30 04:33N 32°29' W 117°43'10 9.8
2015-Mar-30 03:33N 32°20' W 117°39'9 8.9
2015-Mar-30 02:33N 32°11' W 117°37'1111.4
2015-Mar-30 01:34N 32°01' W 117°33'1111.3
2015-Mar-30 00:33N 31°50' W 117°29'1211.6
2015-Mar-29 23:33N 31°39' W 117°25'1211.6
2015-Mar-29 22:33N 31°27' W 117°21'1211.9
2015-Mar-29 21:33N 31°16' W 117°17'1111.5
2015-Mar-29 20:34N 31°05' W 117°13'1211.5
2015-Mar-29 19:33N 30°54' W 117°09'1111.4
2015-Mar-29 18:34N 30°43' W 117°06'1111.3
2015-Mar-29 17:34N 30°32' W 117°02'1211.4
2015-Mar-29 16:33N 30°21' W 116°58'1211.7
2015-Mar-29 15:33N 30°10' W 116°54'1212.0
2015-Mar-29 14:34N 29°59' W 116°50'1111.5
2015-Mar-29 13:33N 29°48' W 116°47'1111.3
2015-Mar-29 12:33N 29°37' W 116°43'1211.5
2015-Mar-29 11:33N 29°26' W 116°39'1111.4
2015-Mar-29 10:34N 29°15' W 116°35'1111.4
2015-Mar-29 09:33N 29°04' W 116°32'1111.4
2015-Mar-29 08:33N 28°53' W 116°28'1111.4
2015-Mar-29 07:33N 28°42' W 116°24'1211.5
2015-Mar-29 06:33N 28°31' W 116°20'1211.6
2015-Mar-29 05:34N 28°20' W 116°17'1211.5
2015-Mar-29 04:34N 28°09' W 116°13'1111.4
2015-Mar-29 03:33N 27°58' W 116°08'2311.7
2015-Mar-29 01:33N 27°39' W 115°53'1211.9
2015-Mar-29 00:33N 27°30' W 115°44'1411.9
2015-Mar-28 23:22N 27°19' W 115°35'1012.0
2015-Mar-28 22:33N 27°11' W 115°28'1311.7
2015-Mar-28 21:27N 27°00' W 115°19'1011.6
2015-Mar-28 20:33N 26°52' W 115°12'1211.6
2015-Mar-28 19:33N 26°43' W 115°04'  
Track history (hours):
 
Tides and Currents Weather Stations Pressure Air Temp Water Temp Dewpoint Dewpoint Depression Visibility Wind Speed Wind Dir Waves Ship Positions

Aqualoyalty

Last reported at 2015-Apr-01 21:05 UTC. Time now 2015-Apr-25 21:51 UTC.
Position N 31°33' W 117°26'.
Warning: this ship's position is 24 days out of date.

Length 249 m; draft 8.4 m.

Type: Ship. MMSI: 636015177.

Date/timePositionNaut miles runAvg speedWind from/ knotsBaromVisibWave heightAir tempDewpointWater temp
2015-Apr-01 21:05N 31°33' W 117°26'711.0
2015-Apr-01 20:25N 31°40' W 117°29'3010.5
2015-Apr-01 17:33N 32°09' W 117°39'1010.2
2015-Apr-01 16:33N 32°19' W 117°43'1010.0
2015-Apr-01 15:33N 32°28' W 117°46'8 8.4
2015-Apr-01 14:33N 32°37' W 117°49'1010.1
2015-Apr-01 13:33N 32°46' W 117°53'1010.4
2015-Apr-01 12:33N 32°56' W 117°57'1110.6
2015-Apr-01 11:33N 33°06' W 118°01'1110.9
2015-Apr-01 10:33N 33°16' W 118°05'1110.7
2015-Apr-01 09:33N 33°27' W 118°09'1110.4
2015-Apr-01 08:32N 33°37' W 118°13'7 7.2
2015-Apr-01 07:33N 33°44' W 118°12'1 0.8
2015-Apr-01 06:31N 33°44' W 118°13'0 0.0
2015-Apr-01 05:31N 33°44' W 118°13'0 0.1
2015-Apr-01 04:31N 33°44' W 118°13'0 0.1
2015-Apr-01 03:31N 33°44' W 118°13'0 0.0
2015-Apr-01 02:31N 33°44' W 118°13'0 0.1
2015-Apr-01 01:31N 33°44' W 118°13'0 0.1
2015-Apr-01 00:31N 33°44' W 118°13'3 2.7
2015-Mar-31 23:34N 33°46' W 118°13'0 0.1
2015-Mar-31 22:31N 33°46' W 118°13'0 0.0
2015-Mar-31 21:31N 33°46' W 118°13'0 0.0
2015-Mar-31 20:31N 33°46' W 118°13'0 0.0
2015-Mar-31 19:31N 33°46' W 118°13'0 0.0
2015-Mar-31 18:31N 33°46' W 118°13'0 0.0
2015-Mar-31 17:31N 33°46' W 118°13'0 0.0
2015-Mar-31 16:31N 33°46' W 118°13'0 0.0
2015-Mar-31 15:31N 33°46' W 118°13'0 0.0
2015-Mar-31 14:31N 33°46' W 118°13'0 0.0
2015-Mar-31 13:31N 33°46' W 118°13'0 0.0
2015-Mar-31 12:31N 33°46' W 118°13'0 0.0
2015-Mar-31 11:31N 33°46' W 118°13'0 0.0
2015-Mar-31 10:31N 33°46' W 118°13'0 0.0
2015-Mar-31 09:31N 33°46' W 118°13'0 0.0
2015-Mar-31 08:31N 33°46' W 118°13'0 0.0
2015-Mar-31 07:31N 33°46' W 118°13'0 0.0
2015-Mar-31 06:31N 33°46' W 118°13'0 0.0
2015-Mar-31 05:31N 33°46' W 118°13'0 0.0
2015-Mar-31 04:31N 33°46' W 118°13'0 0.0
2015-Mar-31 03:31N 33°46' W 118°13'0 0.0
2015-Mar-31 02:31N 33°46' W 118°13'0 0.0
2015-Mar-31 01:31N 33°46' W 118°13'0 0.0
2015-Mar-31 00:31N 33°46' W 118°13'0 0.0
2015-Mar-30 23:31N 33°46' W 118°13'0 0.0
2015-Mar-30 22:31N 33°46' W 118°13'0 0.0
2015-Mar-30 21:31N 33°46' W 118°13'0 0.0
2015-Mar-30 20:31N 33°46' W 118°13'0 0.0
2015-Mar-30 19:31N 33°46' W 118°13'0 0.0
2015-Mar-30 18:31N 33°46' W 118°13'0 0.0
2015-Mar-30 17:31N 33°46' W 118°13'0 0.0
2015-Mar-30 16:31N 33°46' W 118°13'0 0.0
2015-Mar-30 15:31N 33°46' W 118°13'0 0.0
2015-Mar-30 14:31N 33°46' W 118°13'0 0.0
2015-Mar-30 13:34N 33°46' W 118°13'2 2.4
2015-Mar-30 12:34N 33°44' W 118°12'6 6.3
2015-Mar-30 11:33N 33°38' W 118°10'8 8.2
2015-Mar-30 10:33N 33°30' W 118°07'1111.1
2015-Mar-30 09:34N 33°20' W 118°03'1111.3
2015-Mar-30 08:33N 33°09' W 117°58'1111.3
2015-Mar-30 07:34N 32°59' W 117°53'1111.2
2015-Mar-30 06:33N 32°48' W 117°49'1111.0
2015-Mar-30 05:33N 32°38' W 117°45'8 8.5
2015-Mar-30 04:33N 32°29' W 117°43'10 9.8
2015-Mar-30 03:33N 32°20' W 117°39'9 8.9
2015-Mar-30 02:33N 32°11' W 117°37'1111.4
2015-Mar-30 01:34N 32°01' W 117°33'1111.3
2015-Mar-30 00:33N 31°50' W 117°29'1211.6
2015-Mar-29 23:33N 31°39' W 117°25'1211.6
2015-Mar-29 22:33N 31°27' W 117°21'1211.9
2015-Mar-29 21:33N 31°16' W 117°17'1111.5
2015-Mar-29 20:34N 31°05' W 117°13'1211.5
2015-Mar-29 19:33N 30°54' W 117°09'1111.4
2015-Mar-29 18:34N 30°43' W 117°06'1111.3
2015-Mar-29 17:34N 30°32' W 117°02'1211.4
2015-Mar-29 16:33N 30°21' W 116°58'1211.7
2015-Mar-29 15:33N 30°10' W 116°54'1212.0
2015-Mar-29 14:34N 29°59' W 116°50'1111.5
2015-Mar-29 13:33N 29°48' W 116°47'1111.3
2015-Mar-29 12:33N 29°37' W 116°43'1211.5
2015-Mar-29 11:33N 29°26' W 116°39'1111.4
2015-Mar-29 10:34N 29°15' W 116°35'1111.4
2015-Mar-29 09:33N 29°04' W 116°32'1111.4
2015-Mar-29 08:33N 28°53' W 116°28'1111.4
2015-Mar-29 07:33N 28°42' W 116°24'1211.5
2015-Mar-29 06:33N 28°31' W 116°20'1211.6
2015-Mar-29 05:34N 28°20' W 116°17'1211.5
2015-Mar-29 04:34N 28°09' W 116°13'1111.4
2015-Mar-29 03:33N 27°58' W 116°08'2311.7
2015-Mar-29 01:33N 27°39' W 115°53'1211.9
2015-Mar-29 00:33N 27°30' W 115°44'1411.9
2015-Mar-28 23:22N 27°19' W 115°35'1012.0
2015-Mar-28 22:33N 27°11' W 115°28'1311.7
2015-Mar-28 21:27N 27°00' W 115°19'1011.6
2015-Mar-28 20:33N 26°52' W 115°12'1211.6
2015-Mar-28 19:33N 26°43' W 115°04'  

Dump ship's entire track history